sensor_id;sensor_type;location;lat;lon;timestamp;P1;durP1;ratioP1;P2;durP2;ratioP2
40827;SDS011;26549;50.918;5.338;2024-01-15T00:00:17;29.02;;;14.90;;
40827;SDS011;26549;50.918;5.338;2024-01-15T00:02:43;25.45;;;13.68;;
40827;SDS011;26549;50.918;5.338;2024-01-15T00:05:09;27.23;;;13.65;;
40827;SDS011;26549;50.918;5.338;2024-01-15T00:07:35;33.50;;;13.20;;
40827;SDS011;26549;50.918;5.338;2024-01-15T00:10:01;27.35;;;13.65;;
40827;SDS011;26549;50.918;5.338;2024-01-15T00:12:27;33.78;;;14.25;;
40827;SDS011;26549;50.918;5.338;2024-01-15T00:14:53;29.65;;;13.63;;
40827;SDS011;26549;50.918;5.338;2024-01-15T00:17:19;31.45;;;12.10;;
40827;SDS011;26549;50.918;5.338;2024-01-15T00:19:45;29.83;;;12.65;;
40827;SDS011;26549;50.918;5.338;2024-01-15T00:22:10;29.85;;;13.57;;
40827;SDS011;26549;50.918;5.338;2024-01-15T00:24:38;32.85;;;13.85;;
40827;SDS011;26549;50.918;5.338;2024-01-15T00:27:03;24.60;;;13.57;;
40827;SDS011;26549;50.918;5.338;2024-01-15T00:29:29;27.98;;;14.27;;
40827;SDS011;26549;50.918;5.338;2024-01-15T00:31:55;32.80;;;15.38;;
40827;SDS011;26549;50.918;5.338;2024-01-15T00:34:21;26.17;;;12.75;;
40827;SDS011;26549;50.918;5.338;2024-01-15T00:36:46;31.65;;;14.75;;
40827;SDS011;26549;50.918;5.338;2024-01-15T00:39:12;33.38;;;14.55;;
40827;SDS011;26549;50.918;5.338;2024-01-15T00:41:38;28.63;;;12.85;;
40827;SDS011;26549;50.918;5.338;2024-01-15T00:44:04;28.33;;;13.35;;
40827;SDS011;26549;50.918;5.338;2024-01-15T00:46:29;30.95;;;14.98;;
40827;SDS011;26549;50.918;5.338;2024-01-15T00:48:55;32.38;;;14.15;;
40827;SDS011;26549;50.918;5.338;2024-01-15T00:51:21;31.95;;;14.55;;
40827;SDS011;26549;50.918;5.338;2024-01-15T00:53:47;29.55;;;15.10;;
40827;SDS011;26549;50.918;5.338;2024-01-15T00:56:13;31.92;;;13.50;;
40827;SDS011;26549;50.918;5.338;2024-01-15T00:58:39;31.77;;;13.55;;
40827;SDS011;26549;50.918;5.338;2024-01-15T01:01:04;23.90;;;11.77;;
40827;SDS011;26549;50.918;5.338;2024-01-15T01:03:30;27.02;;;14.80;;
40827;SDS011;26549;50.918;5.338;2024-01-15T01:05:56;28.95;;;13.60;;
40827;SDS011;26549;50.918;5.338;2024-01-15T01:08:21;29.90;;;13.80;;
40827;SDS011;26549;50.918;5.338;2024-01-15T01:10:47;29.08;;;13.77;;
40827;SDS011;26549;50.918;5.338;2024-01-15T01:13:13;28.20;;;13.13;;
40827;SDS011;26549;50.918;5.338;2024-01-15T01:15:39;31.55;;;13.32;;
40827;SDS011;26549;50.918;5.338;2024-01-15T01:18:04;29.55;;;13.55;;
40827;SDS011;26549;50.918;5.338;2024-01-15T01:20:30;31.52;;;14.20;;
40827;SDS011;26549;50.918;5.338;2024-01-15T01:22:56;34.63;;;14.75;;
40827;SDS011;26549;50.918;5.338;2024-01-15T01:25:22;32.00;;;13.95;;
40827;SDS011;26549;50.918;5.338;2024-01-15T01:27:48;31.02;;;12.40;;
40827;SDS011;26549;50.918;5.338;2024-01-15T01:30:13;31.23;;;14.27;;
40827;SDS011;26549;50.918;5.338;2024-01-15T01:32:39;29.23;;;14.00;;
40827;SDS011;26549;50.918;5.338;2024-01-15T01:35:05;27.52;;;13.77;;
40827;SDS011;26549;50.918;5.338;2024-01-15T01:37:31;28.30;;;13.13;;
40827;SDS011;26549;50.918;5.338;2024-01-15T01:39:59;26.88;;;12.73;;
40827;SDS011;26549;50.918;5.338;2024-01-15T01:42:25;28.83;;;13.25;;
40827;SDS011;26549;50.918;5.338;2024-01-15T01:44:51;26.77;;;12.30;;
40827;SDS011;26549;50.918;5.338;2024-01-15T01:47:17;28.73;;;14.82;;
40827;SDS011;26549;50.918;5.338;2024-01-15T01:49:43;26.60;;;10.73;;
40827;SDS011;26549;50.918;5.338;2024-01-15T01:52:09;27.25;;;13.25;;
40827;SDS011;26549;50.918;5.338;2024-01-15T01:54:35;24.80;;;11.88;;
40827;SDS011;26549;50.918;5.338;2024-01-15T01:57:03;22.15;;;11.80;;
40827;SDS011;26549;50.918;5.338;2024-01-15T01:59:30;22.13;;;11.73;;
40827;SDS011;26549;50.918;5.338;2024-01-15T02:01:57;23.92;;;11.10;;
40827;SDS011;26549;50.918;5.338;2024-01-15T02:04:24;26.77;;;11.38;;
40827;SDS011;26549;50.918;5.338;2024-01-15T02:06:50;21.30;;;10.57;;
40827;SDS011;26549;50.918;5.338;2024-01-15T02:09:17;26.70;;;10.63;;
40827;SDS011;26549;50.918;5.338;2024-01-15T02:11:45;21.45;;;10.27;;
40827;SDS011;26549;50.918;5.338;2024-01-15T02:14:14;27.15;;;10.30;;
40827;SDS011;26549;50.918;5.338;2024-01-15T02:16:40;21.92;;;10.75;;
40827;SDS011;26549;50.918;5.338;2024-01-15T02:19:06;22.33;;;9.93;;
40827;SDS011;26549;50.918;5.338;2024-01-15T02:21:32;18.17;;;9.65;;
40827;SDS011;26549;50.918;5.338;2024-01-15T02:23:58;21.02;;;9.98;;
40827;SDS011;26549;50.918;5.338;2024-01-15T02:26:24;22.77;;;9.68;;
40827;SDS011;26549;50.918;5.338;2024-01-15T02:28:49;18.98;;;9.90;;
40827;SDS011;26549;50.918;5.338;2024-01-15T02:31:16;17.08;;;8.82;;
40827;SDS011;26549;50.918;5.338;2024-01-15T02:33:43;18.83;;;9.52;;
40827;SDS011;26549;50.918;5.338;2024-01-15T02:36:09;18.52;;;8.85;;
40827;SDS011;26549;50.918;5.338;2024-01-15T02:38:35;18.45;;;9.68;;
40827;SDS011;26549;50.918;5.338;2024-01-15T02:41:01;17.90;;;8.18;;
40827;SDS011;26549;50.918;5.338;2024-01-15T02:43:26;20.45;;;9.55;;
40827;SDS011;26549;50.918;5.338;2024-01-15T02:45:52;15.05;;;9.30;;
40827;SDS011;26549;50.918;5.338;2024-01-15T02:48:18;18.50;;;9.57;;
40827;SDS011;26549;50.918;5.338;2024-01-15T02:50:44;19.95;;;10.07;;
40827;SDS011;26549;50.918;5.338;2024-01-15T02:53:09;17.17;;;10.23;;
40827;SDS011;26549;50.918;5.338;2024-01-15T02:55:35;17.73;;;9.30;;
40827;SDS011;26549;50.918;5.338;2024-01-15T02:58:01;16.15;;;9.00;;
40827;SDS011;26549;50.918;5.338;2024-01-15T03:00:27;13.27;;;7.80;;
40827;SDS011;26549;50.918;5.338;2024-01-15T03:02:53;14.98;;;7.95;;
40827;SDS011;26549;50.918;5.338;2024-01-15T03:05:19;17.42;;;7.95;;
40827;SDS011;26549;50.918;5.338;2024-01-15T03:07:45;13.52;;;7.90;;
40827;SDS011;26549;50.918;5.338;2024-01-15T03:10:11;18.13;;;8.30;;
40827;SDS011;26549;50.918;5.338;2024-01-15T03:12:36;16.17;;;8.50;;
40827;SDS011;26549;50.918;5.338;2024-01-15T03:15:02;14.23;;;7.47;;
40827;SDS011;26549;50.918;5.338;2024-01-15T03:17:28;16.83;;;7.85;;
40827;SDS011;26549;50.918;5.338;2024-01-15T03:19:54;16.17;;;8.82;;
40827;SDS011;26549;50.918;5.338;2024-01-15T03:22:20;13.77;;;6.90;;
40827;SDS011;26549;50.918;5.338;2024-01-15T03:24:45;14.40;;;7.65;;
40827;SDS011;26549;50.918;5.338;2024-01-15T03:27:11;15.10;;;7.90;;
40827;SDS011;26549;50.918;5.338;2024-01-15T03:29:37;10.60;;;6.65;;
40827;SDS011;26549;50.918;5.338;2024-01-15T03:32:03;17.08;;;7.60;;
40827;SDS011;26549;50.918;5.338;2024-01-15T03:34:28;13.55;;;6.82;;
40827;SDS011;26549;50.918;5.338;2024-01-15T03:36:54;14.90;;;7.00;;
40827;SDS011;26549;50.918;5.338;2024-01-15T03:39:20;11.23;;;6.90;;
40827;SDS011;26549;50.918;5.338;2024-01-15T03:41:46;12.98;;;7.00;;
40827;SDS011;26549;50.918;5.338;2024-01-15T03:44:11;12.70;;;7.15;;
40827;SDS011;26549;50.918;5.338;2024-01-15T03:46:37;11.95;;;6.05;;
40827;SDS011;26549;50.918;5.338;2024-01-15T03:49:03;18.10;;;7.13;;
40827;SDS011;26549;50.918;5.338;2024-01-15T03:51:29;12.80;;;6.90;;
40827;SDS011;26549;50.918;5.338;2024-01-15T03:53:54;9.15;;;6.45;;
40827;SDS011;26549;50.918;5.338;2024-01-15T03:56:20;10.82;;;6.25;;
40827;SDS011;26549;50.918;5.338;2024-01-15T03:58:46;9.75;;;6.20;;
40827;SDS011;26549;50.918;5.338;2024-01-15T04:01:12;12.60;;;7.38;;
40827;SDS011;26549;50.918;5.338;2024-01-15T04:03:38;13.98;;;6.65;;
40827;SDS011;26549;50.918;5.338;2024-01-15T04:06:04;17.73;;;6.85;;
40827;SDS011;26549;50.918;5.338;2024-01-15T04:08:30;14.85;;;6.90;;
40827;SDS011;26549;50.918;5.338;2024-01-15T04:10:56;11.50;;;6.40;;
40827;SDS011;26549;50.918;5.338;2024-01-15T04:13:22;10.75;;;6.13;;
40827;SDS011;26549;50.918;5.338;2024-01-15T04:15:47;13.05;;;5.88;;
40827;SDS011;26549;50.918;5.338;2024-01-15T04:18:15;12.40;;;7.13;;
40827;SDS011;26549;50.918;5.338;2024-01-15T04:20:42;11.93;;;5.80;;
40827;SDS011;26549;50.918;5.338;2024-01-15T04:23:08;7.60;;;5.32;;
40827;SDS011;26549;50.918;5.338;2024-01-15T04:25:34;10.95;;;5.75;;
40827;SDS011;26549;50.918;5.338;2024-01-15T04:28:00;11.95;;;5.78;;
40827;SDS011;26549;50.918;5.338;2024-01-15T04:30:26;10.27;;;6.28;;
40827;SDS011;26549;50.918;5.338;2024-01-15T04:32:52;11.23;;;5.35;;
40827;SDS011;26549;50.918;5.338;2024-01-15T04:35:17;13.13;;;5.90;;
40827;SDS011;26549;50.918;5.338;2024-01-15T04:37:44;12.85;;;5.63;;
40827;SDS011;26549;50.918;5.338;2024-01-15T04:40:10;9.48;;;5.60;;
40827;SDS011;26549;50.918;5.338;2024-01-15T04:42:36;8.77;;;5.30;;
40827;SDS011;26549;50.918;5.338;2024-01-15T04:45:02;9.00;;;5.10;;
40827;SDS011;26549;50.918;5.338;2024-01-15T04:47:28;11.18;;;6.53;;
40827;SDS011;26549;50.918;5.338;2024-01-15T04:49:54;13.50;;;5.97;;
40827;SDS011;26549;50.918;5.338;2024-01-15T04:52:21;9.20;;;6.03;;
40827;SDS011;26549;50.918;5.338;2024-01-15T04:54:47;8.48;;;5.20;;
40827;SDS011;26549;50.918;5.338;2024-01-15T04:57:12;12.15;;;7.15;;
40827;SDS011;26549;50.918;5.338;2024-01-15T04:59:38;10.20;;;5.80;;
40827;SDS011;26549;50.918;5.338;2024-01-15T05:02:04;12.82;;;5.90;;
40827;SDS011;26549;50.918;5.338;2024-01-15T05:04:30;10.73;;;5.72;;
40827;SDS011;26549;50.918;5.338;2024-01-15T05:06:56;10.68;;;6.70;;
40827;SDS011;26549;50.918;5.338;2024-01-15T05:09:22;11.20;;;6.15;;
40827;SDS011;26549;50.918;5.338;2024-01-15T05:11:47;13.80;;;7.13;;
40827;SDS011;26549;50.918;5.338;2024-01-15T05:14:13;15.57;;;7.90;;
40827;SDS011;26549;50.918;5.338;2024-01-15T05:16:39;12.70;;;7.97;;
40827;SDS011;26549;50.918;5.338;2024-01-15T05:19:11;18.40;;;9.27;;
40827;SDS011;26549;50.918;5.338;2024-01-15T05:21:37;17.10;;;8.85;;
40827;SDS011;26549;50.918;5.338;2024-01-15T05:24:03;16.55;;;9.30;;
40827;SDS011;26549;50.918;5.338;2024-01-15T05:26:28;18.25;;;8.88;;
40827;SDS011;26549;50.918;5.338;2024-01-15T05:28:54;18.73;;;10.27;;
40827;SDS011;26549;50.918;5.338;2024-01-15T05:31:20;21.83;;;10.75;;
40827;SDS011;26549;50.918;5.338;2024-01-15T05:33:46;19.20;;;11.60;;
40827;SDS011;26549;50.918;5.338;2024-01-15T05:36:11;22.08;;;10.32;;
40827;SDS011;26549;50.918;5.338;2024-01-15T05:38:37;23.42;;;11.82;;
40827;SDS011;26549;50.918;5.338;2024-01-15T05:41:04;21.90;;;10.07;;
40827;SDS011;26549;50.918;5.338;2024-01-15T05:43:30;18.58;;;10.50;;
40827;SDS011;26549;50.918;5.338;2024-01-15T05:45:56;26.08;;;11.68;;
40827;SDS011;26549;50.918;5.338;2024-01-15T05:48:23;19.38;;;10.45;;
40827;SDS011;26549;50.918;5.338;2024-01-15T05:50:49;21.23;;;11.20;;
40827;SDS011;26549;50.918;5.338;2024-01-15T05:53:15;20.13;;;11.68;;
40827;SDS011;26549;50.918;5.338;2024-01-15T05:55:40;21.25;;;12.45;;
40827;SDS011;26549;50.918;5.338;2024-01-15T05:58:06;20.65;;;11.23;;
40827;SDS011;26549;50.918;5.338;2024-01-15T06:00:32;30.10;;;11.20;;
40827;SDS011;26549;50.918;5.338;2024-01-15T06:03:01;20.95;;;10.50;;
40827;SDS011;26549;50.918;5.338;2024-01-15T06:05:26;25.00;;;10.98;;
40827;SDS011;26549;50.918;5.338;2024-01-15T06:07:52;22.52;;;10.93;;
40827;SDS011;26549;50.918;5.338;2024-01-15T06:10:18;21.30;;;10.38;;
40827;SDS011;26549;50.918;5.338;2024-01-15T06:12:44;20.25;;;11.02;;
40827;SDS011;26549;50.918;5.338;2024-01-15T06:15:10;22.38;;;11.10;;
40827;SDS011;26549;50.918;5.338;2024-01-15T06:17:37;19.13;;;11.63;;
40827;SDS011;26549;50.918;5.338;2024-01-15T06:20:02;19.73;;;10.00;;
40827;SDS011;26549;50.918;5.338;2024-01-15T06:22:29;19.35;;;11.25;;
40827;SDS011;26549;50.918;5.338;2024-01-15T06:24:55;23.10;;;10.93;;
40827;SDS011;26549;50.918;5.338;2024-01-15T06:27:21;22.02;;;10.80;;
40827;SDS011;26549;50.918;5.338;2024-01-15T06:29:47;22.13;;;9.82;;
40827;SDS011;26549;50.918;5.338;2024-01-15T06:32:12;21.08;;;11.00;;
40827;SDS011;26549;50.918;5.338;2024-01-15T06:34:39;18.20;;;9.88;;
40827;SDS011;26549;50.918;5.338;2024-01-15T06:37:04;19.63;;;9.63;;
40827;SDS011;26549;50.918;5.338;2024-01-15T06:39:30;17.33;;;10.40;;
40827;SDS011;26549;50.918;5.338;2024-01-15T06:41:56;17.63;;;9.95;;
40827;SDS011;26549;50.918;5.338;2024-01-15T06:44:22;14.93;;;9.45;;
40827;SDS011;26549;50.918;5.338;2024-01-15T06:46:48;18.92;;;9.13;;
40827;SDS011;26549;50.918;5.338;2024-01-15T06:49:13;22.27;;;9.70;;
40827;SDS011;26549;50.918;5.338;2024-01-15T06:51:40;22.48;;;9.73;;
40827;SDS011;26549;50.918;5.338;2024-01-15T06:54:06;14.80;;;8.45;;
40827;SDS011;26549;50.918;5.338;2024-01-15T06:56:32;15.13;;;8.35;;
40827;SDS011;26549;50.918;5.338;2024-01-15T06:58:58;13.05;;;8.45;;
40827;SDS011;26549;50.918;5.338;2024-01-15T07:01:24;13.40;;;7.82;;
40827;SDS011;26549;50.918;5.338;2024-01-15T07:03:50;13.68;;;8.30;;
40827;SDS011;26549;50.918;5.338;2024-01-15T07:06:15;13.32;;;7.40;;
40827;SDS011;26549;50.918;5.338;2024-01-15T07:08:41;12.77;;;7.22;;
40827;SDS011;26549;50.918;5.338;2024-01-15T07:11:07;17.58;;;7.30;;
40827;SDS011;26549;50.918;5.338;2024-01-15T07:13:33;10.43;;;6.68;;
40827;SDS011;26549;50.918;5.338;2024-01-15T07:16:01;10.63;;;6.68;;
40827;SDS011;26549;50.918;5.338;2024-01-15T07:18:27;10.77;;;5.70;;
40827;SDS011;26549;50.918;5.338;2024-01-15T07:20:53;11.15;;;5.55;;
40827;SDS011;26549;50.918;5.338;2024-01-15T07:23:19;8.77;;;5.55;;
40827;SDS011;26549;50.918;5.338;2024-01-15T07:25:45;8.10;;;4.22;;
40827;SDS011;26549;50.918;5.338;2024-01-15T07:28:11;8.98;;;5.35;;
40827;SDS011;26549;50.918;5.338;2024-01-15T07:30:37;8.30;;;4.70;;
40827;SDS011;26549;50.918;5.338;2024-01-15T07:33:04;7.30;;;4.63;;
40827;SDS011;26549;50.918;5.338;2024-01-15T07:35:30;7.10;;;4.28;;
40827;SDS011;26549;50.918;5.338;2024-01-15T07:37:57;9.77;;;4.25;;
40827;SDS011;26549;50.918;5.338;2024-01-15T07:40:22;5.85;;;3.40;;
40827;SDS011;26549;50.918;5.338;2024-01-15T07:42:50;7.22;;;5.20;;
40827;SDS011;26549;50.918;5.338;2024-01-15T07:45:16;8.52;;;4.18;;
40827;SDS011;26549;50.918;5.338;2024-01-15T07:47:42;6.80;;;3.28;;
40827;SDS011;26549;50.918;5.338;2024-01-15T07:50:09;5.00;;;3.08;;
40827;SDS011;26549;50.918;5.338;2024-01-15T07:52:35;9.95;;;3.63;;
40827;SDS011;26549;50.918;5.338;2024-01-15T07:55:01;8.63;;;3.85;;
40827;SDS011;26549;50.918;5.338;2024-01-15T07:57:29;7.85;;;4.25;;
40827;SDS011;26549;50.918;5.338;2024-01-15T07:59:55;4.88;;;3.42;;
40827;SDS011;26549;50.918;5.338;2024-01-15T08:02:21;5.13;;;4.00;;
40827;SDS011;26549;50.918;5.338;2024-01-15T08:04:46;8.35;;;3.10;;
40827;SDS011;26549;50.918;5.338;2024-01-15T08:07:12;4.47;;;2.97;;
40827;SDS011;26549;50.918;5.338;2024-01-15T08:09:38;8.00;;;2.67;;
40827;SDS011;26549;50.918;5.338;2024-01-15T08:12:04;6.65;;;3.10;;
40827;SDS011;26549;50.918;5.338;2024-01-15T08:14:31;4.88;;;3.22;;
40827;SDS011;26549;50.918;5.338;2024-01-15T08:16:57;3.90;;;2.55;;
40827;SDS011;26549;50.918;5.338;2024-01-15T08:19:23;3.95;;;2.38;;
40827;SDS011;26549;50.918;5.338;2024-01-15T08:21:49;5.85;;;2.22;;
40827;SDS011;26549;50.918;5.338;2024-01-15T08:24:15;4.00;;;3.03;;
40827;SDS011;26549;50.918;5.338;2024-01-15T08:26:41;4.18;;;2.75;;
40827;SDS011;26549;50.918;5.338;2024-01-15T08:29:07;4.72;;;2.85;;
40827;SDS011;26549;50.918;5.338;2024-01-15T08:31:33;8.25;;;2.30;;
40827;SDS011;26549;50.918;5.338;2024-01-15T08:33:59;5.55;;;2.47;;
40827;SDS011;26549;50.918;5.338;2024-01-15T08:36:26;4.03;;;2.28;;
40827;SDS011;26549;50.918;5.338;2024-01-15T08:38:54;4.05;;;2.22;;
40827;SDS011;26549;50.918;5.338;2024-01-15T08:41:20;5.28;;;2.58;;
40827;SDS011;26549;50.918;5.338;2024-01-15T08:43:46;4.72;;;2.13;;
40827;SDS011;26549;50.918;5.338;2024-01-15T08:46:12;5.97;;;2.60;;
40827;SDS011;26549;50.918;5.338;2024-01-15T08:48:38;7.93;;;2.33;;
40827;SDS011;26549;50.918;5.338;2024-01-15T08:51:04;5.65;;;2.30;;
40827;SDS011;26549;50.918;5.338;2024-01-15T08:53:30;3.65;;;2.95;;
40827;SDS011;26549;50.918;5.338;2024-01-15T08:55:56;3.15;;;1.80;;
40827;SDS011;26549;50.918;5.338;2024-01-15T08:58:23;8.35;;;2.30;;
40827;SDS011;26549;50.918;5.338;2024-01-15T09:00:49;6.88;;;2.25;;
40827;SDS011;26549;50.918;5.338;2024-01-15T09:03:16;4.68;;;2.50;;
40827;SDS011;26549;50.918;5.338;2024-01-15T09:05:41;4.60;;;2.00;;
40827;SDS011;26549;50.918;5.338;2024-01-15T09:08:08;8.43;;;3.15;;
40827;SDS011;26549;50.918;5.338;2024-01-15T09:10:33;2.83;;;1.88;;
40827;SDS011;26549;50.918;5.338;2024-01-15T09:12:59;5.60;;;2.72;;
40827;SDS011;26549;50.918;5.338;2024-01-15T09:15:25;3.55;;;2.28;;
40827;SDS011;26549;50.918;5.338;2024-01-15T09:17:51;3.63;;;3.20;;
40827;SDS011;26549;50.918;5.338;2024-01-15T09:20:17;3.40;;;2.50;;
40827;SDS011;26549;50.918;5.338;2024-01-15T09:22:44;3.65;;;2.15;;
40827;SDS011;26549;50.918;5.338;2024-01-15T09:25:10;4.43;;;3.15;;
40827;SDS011;26549;50.918;5.338;2024-01-15T09:27:36;3.95;;;2.58;;
40827;SDS011;26549;50.918;5.338;2024-01-15T09:30:03;4.15;;;2.67;;
40827;SDS011;26549;50.918;5.338;2024-01-15T09:32:30;4.78;;;3.25;;
40827;SDS011;26549;50.918;5.338;2024-01-15T09:34:55;4.85;;;2.58;;
40827;SDS011;26549;50.918;5.338;2024-01-15T09:37:21;8.32;;;3.30;;
40827;SDS011;26549;50.918;5.338;2024-01-15T09:39:48;9.43;;;3.20;;
40827;SDS011;26549;50.918;5.338;2024-01-15T09:42:15;5.13;;;3.30;;
40827;SDS011;26549;50.918;5.338;2024-01-15T09:44:41;7.38;;;3.42;;
40827;SDS011;26549;50.918;5.338;2024-01-15T09:47:07;5.75;;;3.40;;
40827;SDS011;26549;50.918;5.338;2024-01-15T09:49:33;8.27;;;3.28;;
40827;SDS011;26549;50.918;5.338;2024-01-15T09:51:59;6.30;;;2.92;;
40827;SDS011;26549;50.918;5.338;2024-01-15T09:54:27;6.90;;;2.75;;
40827;SDS011;26549;50.918;5.338;2024-01-15T09:56:53;3.97;;;2.55;;
40827;SDS011;26549;50.918;5.338;2024-01-15T09:59:21;11.02;;;2.80;;
40827;SDS011;26549;50.918;5.338;2024-01-15T10:01:50;11.90;;;2.97;;
40827;SDS011;26549;50.918;5.338;2024-01-15T10:04:16;5.82;;;2.85;;
40827;SDS011;26549;50.918;5.338;2024-01-15T10:06:43;10.13;;;4.55;;
40827;SDS011;26549;50.918;5.338;2024-01-15T10:09:13;5.60;;;2.22;;
40827;SDS011;26549;50.918;5.338;2024-01-15T10:11:41;5.65;;;2.17;;
40827;SDS011;26549;50.918;5.338;2024-01-15T10:14:08;7.13;;;2.63;;
40827;SDS011;26549;50.918;5.338;2024-01-15T10:16:40;4.30;;;1.90;;
40827;SDS011;26549;50.918;5.338;2024-01-15T10:19:07;6.95;;;3.15;;
40827;SDS011;26549;50.918;5.338;2024-01-15T10:21:33;4.80;;;3.08;;
40827;SDS011;26549;50.918;5.338;2024-01-15T10:24:00;7.15;;;2.13;;
40827;SDS011;26549;50.918;5.338;2024-01-15T10:26:26;4.15;;;1.88;;
40827;SDS011;26549;50.918;5.338;2024-01-15T10:28:52;4.85;;;1.60;;
40827;SDS011;26549;50.918;5.338;2024-01-15T10:31:18;5.07;;;1.73;;
40827;SDS011;26549;50.918;5.338;2024-01-15T10:33:47;3.25;;;1.83;;
40827;SDS011;26549;50.918;5.338;2024-01-15T10:36:14;3.25;;;1.67;;
40827;SDS011;26549;50.918;5.338;2024-01-15T10:38:42;6.03;;;1.90;;
40827;SDS011;26549;50.918;5.338;2024-01-15T10:41:09;6.90;;;2.53;;
40827;SDS011;26549;50.918;5.338;2024-01-15T10:43:35;3.90;;;1.52;;
40827;SDS011;26549;50.918;5.338;2024-01-15T10:46:00;3.88;;;1.58;;
40827;SDS011;26549;50.918;5.338;2024-01-15T10:48:27;4.60;;;1.63;;
40827;SDS011;26549;50.918;5.338;2024-01-15T10:50:56;5.13;;;1.65;;
40827;SDS011;26549;50.918;5.338;2024-01-15T10:53:22;3.33;;;2.15;;
40827;SDS011;26549;50.918;5.338;2024-01-15T10:55:50;8.25;;;1.80;;
40827;SDS011;26549;50.918;5.338;2024-01-15T10:58:19;2.58;;;1.52;;
40827;SDS011;26549;50.918;5.338;2024-01-15T11:00:48;3.67;;;1.45;;
40827;SDS011;26549;50.918;5.338;2024-01-15T11:03:14;6.70;;;1.75;;
40827;SDS011;26549;50.918;5.338;2024-01-15T11:05:42;1.90;;;1.58;;
40827;SDS011;26549;50.918;5.338;2024-01-15T11:08:09;5.70;;;1.77;;
40827;SDS011;26549;50.918;5.338;2024-01-15T11:15:55;6.70;;;1.83;;
40827;SDS011;26549;50.918;5.338;2024-01-15T11:18:34;3.47;;;1.70;;
40827;SDS011;26549;50.918;5.338;2024-01-15T11:23:49;3.28;;;1.13;;
40827;SDS011;26549;50.918;5.338;2024-01-15T11:32:03;4.05;;;1.67;;
40827;SDS011;26549;50.918;5.338;2024-01-15T11:37:18;4.20;;;2.28;;
40827;SDS011;26549;50.918;5.338;2024-01-15T11:39:44;3.90;;;1.42;;
40827;SDS011;26549;50.918;5.338;2024-01-15T11:42:12;6.57;;;1.70;;
40827;SDS011;26549;50.918;5.338;2024-01-15T11:44:39;7.85;;;1.67;;
40827;SDS011;26549;50.918;5.338;2024-01-15T11:47:06;4.60;;;1.75;;
40827;SDS011;26549;50.918;5.338;2024-01-15T11:52:18;2.45;;;1.40;;
40827;SDS011;26549;50.918;5.338;2024-01-15T11:54:48;4.13;;;1.48;;
40827;SDS011;26549;50.918;5.338;2024-01-15T11:57:34;5.65;;;1.80;;
40827;SDS011;26549;50.918;5.338;2024-01-15T12:00:04;4.85;;;1.85;;
40827;SDS011;26549;50.918;5.338;2024-01-15T12:02:32;4.05;;;1.88;;
40827;SDS011;26549;50.918;5.338;2024-01-15T12:04:58;6.38;;;1.90;;
40827;SDS011;26549;50.918;5.338;2024-01-15T12:07:23;4.63;;;1.92;;
40827;SDS011;26549;50.918;5.338;2024-01-15T12:09:49;5.50;;;2.47;;
40827;SDS011;26549;50.918;5.338;2024-01-15T12:12:33;3.97;;;2.05;;
40827;SDS011;26549;50.918;5.338;2024-01-15T12:15:11;3.72;;;2.30;;
40827;SDS011;26549;50.918;5.338;2024-01-15T12:17:38;2.28;;;1.60;;
40827;SDS011;26549;50.918;5.338;2024-01-15T12:20:04;3.63;;;1.60;;
40827;SDS011;26549;50.918;5.338;2024-01-15T12:22:31;6.43;;;2.10;;
40827;SDS011;26549;50.918;5.338;2024-01-15T12:24:57;2.25;;;1.52;;
40827;SDS011;26549;50.918;5.338;2024-01-15T12:27:23;2.95;;;1.70;;
40827;SDS011;26549;50.918;5.338;2024-01-15T12:29:49;3.67;;;2.42;;
40827;SDS011;26549;50.918;5.338;2024-01-15T12:32:15;3.72;;;1.38;;
40827;SDS011;26549;50.918;5.338;2024-01-15T12:34:40;2.65;;;1.30;;
40827;SDS011;26549;50.918;5.338;2024-01-15T12:37:07;2.15;;;1.55;;
40827;SDS011;26549;50.918;5.338;2024-01-15T12:39:36;3.78;;;1.20;;
40827;SDS011;26549;50.918;5.338;2024-01-15T12:42:02;2.72;;;1.10;;
40827;SDS011;26549;50.918;5.338;2024-01-15T12:44:28;3.17;;;2.03;;
40827;SDS011;26549;50.918;5.338;2024-01-15T12:46:55;1.70;;;1.48;;
40827;SDS011;26549;50.918;5.338;2024-01-15T12:49:23;5.03;;;1.73;;
40827;SDS011;26549;50.918;5.338;2024-01-15T12:51:53;2.58;;;1.70;;
40827;SDS011;26549;50.918;5.338;2024-01-15T12:54:20;1.85;;;1.60;;
40827;SDS011;26549;50.918;5.338;2024-01-15T12:56:48;4.10;;;1.67;;
40827;SDS011;26549;50.918;5.338;2024-01-15T12:59:14;2.70;;;1.17;;
40827;SDS011;26549;50.918;5.338;2024-01-15T13:01:40;1.98;;;1.88;;
40827;SDS011;26549;50.918;5.338;2024-01-15T13:04:06;4.65;;;1.20;;
40827;SDS011;26549;50.918;5.338;2024-01-15T13:06:34;1.75;;;1.52;;
40827;SDS011;26549;50.918;5.338;2024-01-15T13:09:01;3.22;;;1.80;;
40827;SDS011;26549;50.918;5.338;2024-01-15T13:11:27;2.42;;;1.40;;
40827;SDS011;26549;50.918;5.338;2024-01-15T13:13:53;1.65;;;1.15;;
40827;SDS011;26549;50.918;5.338;2024-01-15T13:16:18;4.45;;;1.73;;
40827;SDS011;26549;50.918;5.338;2024-01-15T13:18:46;2.05;;;1.55;;
40827;SDS011;26549;50.918;5.338;2024-01-15T13:21:11;8.43;;;2.03;;
40827;SDS011;26549;50.918;5.338;2024-01-15T13:23:38;2.08;;;1.55;;
40827;SDS011;26549;50.918;5.338;2024-01-15T13:26:04;1.42;;;1.33;;
40827;SDS011;26549;50.918;5.338;2024-01-15T13:28:31;3.03;;;1.98;;
40827;SDS011;26549;50.918;5.338;2024-01-15T13:30:57;4.13;;;1.70;;
40827;SDS011;26549;50.918;5.338;2024-01-15T13:33:22;2.38;;;1.30;;
40827;SDS011;26549;50.918;5.338;2024-01-15T13:35:48;1.63;;;1.50;;
40827;SDS011;26549;50.918;5.338;2024-01-15T13:38:15;1.83;;;1.58;;
40827;SDS011;26549;50.918;5.338;2024-01-15T13:40:41;1.52;;;1.38;;
40827;SDS011;26549;50.918;5.338;2024-01-15T13:43:10;1.40;;;1.30;;
40827;SDS011;26549;50.918;5.338;2024-01-15T13:45:36;1.73;;;1.60;;
40827;SDS011;26549;50.918;5.338;2024-01-15T13:48:02;7.47;;;1.90;;
40827;SDS011;26549;50.918;5.338;2024-01-15T13:50:34;3.88;;;1.50;;
40827;SDS011;26549;50.918;5.338;2024-01-15T13:53:01;11.57;;;3.22;;
40827;SDS011;26549;50.918;5.338;2024-01-15T13:55:28;5.95;;;1.95;;
40827;SDS011;26549;50.918;5.338;2024-01-15T13:57:54;4.32;;;1.25;;
40827;SDS011;26549;50.918;5.338;2024-01-15T14:00:20;3.58;;;1.80;;
40827;SDS011;26549;50.918;5.338;2024-01-15T14:02:47;2.25;;;1.40;;
40827;SDS011;26549;50.918;5.338;2024-01-15T14:05:12;2.65;;;1.33;;
40827;SDS011;26549;50.918;5.338;2024-01-15T14:07:39;3.55;;;1.25;;
40827;SDS011;26549;50.918;5.338;2024-01-15T14:10:05;1.42;;;1.30;;
40827;SDS011;26549;50.918;5.338;2024-01-15T14:12:33;2.92;;;1.90;;
40827;SDS011;26549;50.918;5.338;2024-01-15T14:15:03;2.22;;;1.10;;
40827;SDS011;26549;50.918;5.338;2024-01-15T14:17:30;2.15;;;1.42;;
40827;SDS011;26549;50.918;5.338;2024-01-15T14:19:57;1.00;;;1.00;;
40827;SDS011;26549;50.918;5.338;2024-01-15T14:22:23;2.67;;;1.20;;
40827;SDS011;26549;50.918;5.338;2024-01-15T14:24:49;1.05;;;0.93;;
40827;SDS011;26549;50.918;5.338;2024-01-15T14:27:15;2.38;;;1.30;;
40827;SDS011;26549;50.918;5.338;2024-01-15T14:29:41;1.42;;;1.30;;
40827;SDS011;26549;50.918;5.338;2024-01-15T14:32:07;1.58;;;1.38;;
40827;SDS011;26549;50.918;5.338;2024-01-15T14:34:33;3.78;;;1.42;;
40827;SDS011;26549;50.918;5.338;2024-01-15T14:37:03;1.50;;;1.40;;
40827;SDS011;26549;50.918;5.338;2024-01-15T14:39:29;1.00;;;0.90;;
40827;SDS011;26549;50.918;5.338;2024-01-15T14:41:58;1.65;;;1.55;;
40827;SDS011;26549;50.918;5.338;2024-01-15T14:44:23;1.58;;;1.10;;
40827;SDS011;26549;50.918;5.338;2024-01-15T14:46:49;2.92;;;1.45;;
40827;SDS011;26549;50.918;5.338;2024-01-15T14:49:15;4.88;;;1.63;;
40827;SDS011;26549;50.918;5.338;2024-01-15T14:51:42;1.40;;;1.30;;